Time;durP1;ratioP1;P1;durP2;ratioP2;P2;SDS_P1;SDS_P2;PMS_P1;PMS_P2;Temp;Humidity;BMP_temperature;BMP_pressure;BME280_temperature;BME280_humidity;BME280_pressure;Samples;Min_cycle;Max_cycle;Signal;HPM_P1;HPM_P2
2022/01/01 00:02:26;;;;;;;10.20;5.27;;;10.80;99.90;;;11.44;100.00;99133.88;5032321;28;20981;-80
2022/01/01 00:05:08;;;;;;;7.70;5.07;;;10.80;99.90;;;11.44;100.00;99129.47;5028425;28;20485;-81
2022/01/01 00:07:39;;;;;;;9.30;5.77;;;10.80;99.90;;;11.45;100.00;99138.16;5026978;28;20455;-81
2022/01/01 00:10:10;;;;;;;8.17;5.40;;;10.80;99.90;;;11.46;100.00;99131.91;5027706;28;20486;-80
2022/01/01 00:12:42;;;;;;;10.67;5.10;;;10.80;99.90;;;11.45;100.00;99138.94;5029782;28;20465;-80
2022/01/01 00:15:12;;;;;;;8.33;5.73;;;10.80;99.90;;;11.44;100.00;99139.94;5030654;28;20977;-81
2022/01/01 00:17:43;;;;;;;7.63;5.30;;;10.80;99.90;;;11.44;100.00;99139.94;5029637;28;20457;-81
2022/01/01 00:20:14;;;;;;;8.47;5.00;;;10.80;99.90;;;11.46;100.00;99129.28;5028771;28;20551;-81
2022/01/01 00:22:45;;;;;;;12.77;6.93;;;10.80;99.90;;;11.46;100.00;99126.66;5031065;28;20540;-81
2022/01/01 00:25:14;;;;;;;6.70;5.20;;;10.90;99.90;;;11.49;100.00;99114.06;5026864;28;21070;-81
2022/01/01 00:27:44;;;;;;;11.87;5.57;;;10.90;99.90;;;11.49;100.00;99116.66;5025983;28;20517;-81
2022/01/01 00:30:16;;;;;;;10.43;6.20;;;10.80;99.90;;;11.49;100.00;99127.16;5020135;28;20505;-81
2022/01/01 00:32:47;;;;;;;8.53;5.53;;;10.90;99.90;;;11.50;100.00;99136.66;5028845;28;20460;-81
2022/01/01 00:35:16;;;;;;;12.10;5.37;;;10.90;99.90;;;11.51;100.00;99134.84;5027915;28;20458;-81
2022/01/01 00:37:45;;;;;;;7.47;5.07;;;10.80;99.90;;;11.51;100.00;99140.09;5024234;28;20460;-81
2022/01/01 00:40:19;;;;;;;9.17;6.00;;;10.80;99.90;;;11.50;100.00;99139.28;5024283;28;20970;-81
2022/01/01 00:42:51;;;;;;;6.43;4.57;;;10.80;99.90;;;11.50;100.00;99134.03;5028106;28;20466;-81
2022/01/01 00:45:23;;;;;;;16.13;5.53;;;10.90;99.90;;;11.51;100.00;99135.69;5028672;28;20487;-81
2022/01/01 00:47:53;;;;;;;12.73;5.90;;;10.90;99.90;;;11.50;100.00;99135.81;5027510;28;20520;-81
2022/01/01 00:50:22;;;;;;;12.33;5.67;;;10.90;99.90;;;11.48;100.00;99130.78;5024613;28;20528;-81
2022/01/01 00:52:52;;;;;;;7.47;5.40;;;10.80;99.90;;;11.50;100.00;99130.59;5027221;28;20516;-81
2022/01/01 00:55:22;;;;;;;12.37;6.60;;;10.90;99.90;;;11.50;100.00;99131.41;5030562;28;20958;-81
2022/01/01 00:57:54;;;;;;;10.80;5.53;;;10.90;99.90;;;11.51;100.00;99130.44;5020574;28;20955;-81
2022/01/01 01:00:29;;;;;;;8.63;5.17;;;10.90;99.90;;;11.51;100.00;99129.63;5024126;28;20469;-81
2022/01/01 01:02:59;;;;;;;9.60;5.60;;;10.90;99.90;;;11.50;100.00;99122.72;5029457;28;20469;-81
2022/01/01 01:05:29;;;;;;;7.83;5.50;;;10.90;99.90;;;11.49;100.00;99132.38;5025109;28;20455;-81
2022/01/01 01:07:59;;;;;;;9.00;4.63;;;10.90;99.90;;;11.48;100.00;99130.78;5026466;28;20548;-81
2022/01/01 01:10:28;;;;;;;10.97;4.63;;;10.80;99.90;;;11.46;100.00;99127.47;5029558;28;20564;-81
2022/01/01 01:12:59;;;;;;;9.40;4.97;;;10.80;99.90;;;11.48;100.00;99119.47;5031431;28;20816;-81
2022/01/01 01:15:30;;;;;;;10.10;5.17;;;10.80;99.90;;;11.46;100.00;99122.25;5021838;28;20463;-81
2022/01/01 01:18:01;;;;;;;8.80;4.80;;;10.80;99.90;;;11.45;100.00;99111.94;5030090;28;20461;-80
2022/01/01 01:20:33;;;;;;;8.80;5.40;;;10.80;99.90;;;11.44;100.00;99121.59;5026922;28;20485;-80
2022/01/01 01:23:02;;;;;;;6.83;5.27;;;10.80;99.90;;;11.43;100.00;99119.97;5030350;28;20863;-81
2022/01/01 01:25:39;;;;;;;5.93;4.13;;;10.70;99.90;;;11.43;100.00;99119.97;5027765;28;21024;-81
2022/01/01 01:28:14;;;;;;;8.33;5.40;;;10.70;99.90;;;11.44;100.00;99119.00;5025290;28;20548;-81
2022/01/01 01:30:46;;;;;;;7.40;5.10;;;10.70;99.90;;;11.44;100.00;99121.59;5019431;28;20541;-81
2022/01/01 01:33:17;;;;;;;7.63;4.93;;;10.70;99.90;;;11.45;100.00;99120.59;5024206;28;20508;-80
2022/01/01 01:35:46;;;;;;;8.60;5.47;;;10.70;99.90;;;11.43;100.00;99122.59;5028792;28;20527;-81
2022/01/01 01:38:16;;;;;;;13.90;5.33;;;10.80;99.90;;;11.43;100.00;99127.81;5024661;28;20516;-81
2022/01/01 01:40:45;;;;;;;7.50;4.90;;;10.80;99.90;;;11.42;100.00;99128.78;5025838;28;20466;-81
2022/01/01 01:43:17;;;;;;;9.70;5.23;;;10.80;99.90;;;11.43;100.00;99134.84;5026216;28;20552;-81
2022/01/01 01:45:47;;;;;;;8.03;5.20;;;10.70;99.90;;;11.41;100.00;99129.81;5027438;28;20465;-81
2022/01/01 01:48:18;;;;;;;8.00;5.50;;;10.70;99.90;;;11.43;100.00;99132.25;5028541;28;20540;-81
2022/01/01 01:50:48;;;;;;;8.97;5.20;;;10.80;99.90;;;11.43;100.00;99138.28;5026331;28;20486;-81
2022/01/01 01:53:18;;;;;;;8.60;5.20;;;10.80;99.90;;;11.43;100.00;99143.53;5031280;28;20468;-81
2022/01/01 01:55:48;;;;;;;7.93;5.00;;;10.70;99.90;;;11.43;100.00;99143.53;5017385;28;20532;-81
2022/01/01 01:58:20;;;;;;;9.00;5.57;;;10.70;99.90;;;11.43;100.00;99142.72;5026612;28;20469;-81
2022/01/01 02:01:10;;;;;;;8.60;4.70;;;10.70;99.90;;;11.42;100.00;99136.66;5023372;28;20474;-81
2022/01/01 02:03:41;;;;;;;12.90;5.37;;;10.70;99.90;;;11.43;100.00;99137.47;5025557;28;20498;-81
2022/01/01 02:06:10;;;;;;;16.57;6.10;;;10.70;99.90;;;11.42;100.00;99141.09;5025142;28;20466;-81
2022/01/01 02:08:39;;;;;;;12.27;5.30;;;10.60;99.90;;;11.42;100.00;99147.13;5024889;28;21057;-81
2022/01/01 02:11:10;;;;;;;9.90;5.73;;;10.70;99.90;;;11.38;100.00;99139.78;5025328;28;20588;-81
2022/01/01 02:14:00;;;;;;;6.73;4.80;;;10.60;99.90;;;11.37;100.00;99138.97;5028038;28;20494;-81
2022/01/01 02:16:39;;;;;;;11.13;5.90;;;10.60;99.90;;;11.38;100.00;99137.16;5025206;28;20465;-81
2022/01/01 02:19:10;;;;;;;8.50;5.20;;;10.60;99.90;;;11.37;100.00;99125.03;5030178;28;21790;-81
2022/01/01 02:21:41;;;;;;;14.70;5.20;;;10.60;99.90;;;11.36;100.00;99121.59;5026073;28;20520;-81
2022/01/01 02:24:10;;;;;;;9.87;5.60;;;10.60;99.90;;;11.37;100.00;99123.25;5031127;28;20495;-81
2022/01/01 02:26:39;;;;;;;14.37;5.50;;;10.60;99.90;;;11.38;100.00;99121.47;5027078;28;20991;-81
2022/01/01 02:29:10;;;;;;;7.10;5.13;;;10.60;99.90;;;11.37;100.00;99114.56;5030914;28;20993;-81
2022/01/01 02:31:40;;;;;;;11.07;5.70;;;10.60;99.90;;;11.37;100.00;99102.31;5029012;28;20519;-81
2022/01/01 02:34:11;;;;;;;11.60;5.40;;;10.60;99.90;;;11.38;100.00;99103.94;5026459;28;20474;-81
2022/01/01 02:36:44;;;;;;;10.57;6.20;;;10.60;99.90;;;11.37;100.00;99107.53;5025177;28;20462;-81
2022/01/01 02:39:15;;;;;;;11.87;6.20;;;10.50;99.90;;;11.36;100.00;99098.03;5023595;28;20473;-81
2022/01/01 02:41:47;;;;;;;13.23;6.43;;;10.60;99.90;;;11.35;100.00;99087.75;5027505;28;20506;-81
2022/01/01 02:44:16;;;;;;;14.67;6.47;;;10.60;99.90;;;11.34;100.00;99075.63;5028554;28;20619;-81
2022/01/01 02:46:47;;;;;;;8.43;5.00;;;10.50;99.90;;;11.31;100.00;99076.78;5031310;28;20958;-81
2022/01/01 02:49:17;;;;;;;13.80;5.50;;;10.50;99.90;;;11.31;100.00;99079.41;5023131;28;20544;-81
2022/01/01 02:51:48;;;;;;;13.37;6.00;;;10.50;99.90;;;11.31;100.00;99073.34;5027283;28;20527;-81
2022/01/01 02:54:17;;;;;;;15.10;6.00;;;10.50;99.90;;;11.32;100.00;99081.03;5031241;28;20498;-81
2022/01/01 02:56:48;;;;;;;13.73;6.20;;;10.50;99.90;;;11.31;100.00;99087.25;5030332;28;20870;-81
2022/01/01 02:59:18;;;;;;;14.80;6.80;;;10.50;99.90;;;11.31;100.00;99087.25;5030481;28;20466;-81
2022/01/01 03:01:48;;;;;;;10.40;6.60;;;10.50;99.90;;;11.33;100.00;99089.69;5028311;28;20525;-81
2022/01/01 03:04:19;;;;;;;12.43;7.47;;;10.60;99.90;;;11.30;100.00;99103.13;5034327;28;20460;-81
2022/01/01 03:06:54;;;;;;;22.43;10.17;;;10.60;99.90;;;11.30;100.00;99103.94;5026799;28;20946;-81
2022/01/01 03:09:27;;;;;;;15.20;9.47;;;10.70;99.90;;;11.32;100.00;99104.59;5031577;28;20454;-81
2022/01/01 03:11:57;;;;;;;14.37;8.70;;;10.80;99.90;;;11.34;100.00;99118.34;5028594;28;20548;-81
2022/01/01 03:14:27;;;;;;;16.80;8.50;;;10.80;99.90;;;11.35;100.00;99114.72;5022329;28;20924;-81
2022/01/01 03:16:57;;;;;;;20.07;9.07;;;10.70;99.90;;;11.35;100.00;99119.97;5020936;28;20463;-81
2022/01/01 03:19:27;;;;;;;13.00;8.40;;;10.80;99.90;;;11.35;100.00;99114.72;5028014;28;20974;-81
2022/01/01 03:21:58;;;;;;;10.43;7.60;;;10.80;99.90;;;11.37;100.00;99114.56;5031584;28;20744;-81
2022/01/01 03:24:28;;;;;;;15.60;8.47;;;10.70;99.90;;;11.36;100.00;99121.59;5031856;28;20519;-81
2022/01/01 03:26:58;;;;;;;14.63;8.40;;;10.70;99.90;;;11.39;100.00;99126.50;5025717;28;20486;-81
2022/01/01 03:29:30;;;;;;;12.73;8.10;;;10.80;99.90;;;11.39;100.00;99123.88;5029389;28;20462;-81
2022/01/01 03:32:00;;;;;;;13.83;8.50;;;10.90;99.90;;;11.39;100.00;99120.44;5031415;28;20504;-81
2022/01/01 03:34:30;;;;;;;15.73;8.00;;;10.90;99.90;;;11.40;100.00;99135.19;5025854;28;20474;-81
2022/01/01 03:37:02;;;;;;;20.80;9.53;;;10.90;99.90;;;11.40;100.00;99129.94;5025758;28;20556;-81
2022/01/01 03:39:31;;;;;;;19.70;9.30;;;10.80;99.90;;;11.43;100.00;99132.25;5029156;28;21013;-81
2022/01/01 03:42:02;;;;;;;20.30;10.23;;;10.90;99.90;;;11.42;100.00;99135.88;5032138;28;20468;-81
2022/01/01 03:44:31;;;;;;;13.00;8.77;;;10.80;99.90;;;11.42;100.00;99134.03;5022218;28;20493;-81
2022/01/01 03:47:09;;;;;;;17.37;9.50;;;10.80;99.90;;;11.43;100.00;99133.06;5027671;28;20468;-81
2022/01/01 03:49:40;;;;;;;13.80;9.43;;;10.80;99.90;;;11.43;100.00;99138.28;5027484;28;20465;-81
2022/01/01 03:52:12;;;;;;;16.93;9.43;;;10.80;99.90;;;11.44;100.00;99124.22;5027231;28;20696;-81
2022/01/01 03:54:42;;;;;;;18.23;9.57;;;10.90;99.90;;;11.43;100.00;99138.28;5030117;28;20469;-81
2022/01/01 03:57:12;;;;;;;18.23;9.67;;;10.80;99.90;;;11.43;100.00;99130.44;5023571;28;20469;-81
2022/01/01 03:59:42;;;;;;;13.70;8.30;;;10.80;99.90;;;11.44;100.00;99126.84;5035114;28;20452;-81
2022/01/01 04:02:14;;;;;;;13.30;8.70;;;10.80;99.90;;;11.45;100.00;99125.03;5024063;28;20500;-81
2022/01/01 04:04:45;;;;;;;10.80;8.50;;;10.90;99.90;;;11.46;100.00;99124.03;5026192;28;20457;-81
2022/01/01 04:07:17;;;;;;;13.40;9.33;;;10.80;99.90;;;11.43;100.00;99127.00;5031355;28;20464;-81
2022/01/01 04:09:47;;;;;;;15.27;8.60;;;10.70;99.90;;;11.41;100.00;99124.56;5026730;28;20546;-81
2022/01/01 04:12:18;;;;;;;17.60;9.90;;;10.70;99.90;;;11.44;100.00;99132.09;5030626;28;20867;-81
2022/01/01 04:14:49;;;;;;;16.60;9.90;;;10.70;99.90;;;11.40;100.00;99128.16;5032938;28;20458;-81
2022/01/01 04:17:18;;;;;;;14.37;8.97;;;10.80;99.90;;;11.40;100.00;99130.78;5030901;28;20962;-81
2022/01/01 04:19:47;;;;;;;15.90;8.83;;;10.70;99.90;;;11.39;100.00;99126.50;5026827;28;20484;-81
2022/01/01 04:22:19;;;;;;;11.90;8.53;;;10.70;99.90;;;11.39;100.00;99118.66;5023219;28;20730;-81
2022/01/01 04:24:50;;;;;;;13.50;9.57;;;10.80;99.90;;;11.38;100.00;99127.50;5028771;28;20462;-81
2022/01/01 04:27:19;;;;;;;14.63;9.13;;;10.70;99.90;;;11.35;100.00;99117.34;5028061;28;20480;-81
2022/01/01 04:29:48;;;;;;;14.63;8.53;;;10.70;99.90;;;11.38;100.00;99118.84;5029488;28;20473;-80
2022/01/01 04:32:18;;;;;;;14.30;9.20;;;10.70;99.90;;;11.36;100.00;99115.53;5025249;28;20885;-81
2022/01/01 04:34:48;;;;;;;16.90;11.40;;;10.70;99.90;;;11.34;100.00;99118.34;5026891;28;20461;-81
2022/01/01 04:37:21;;;;;;;14.37;10.23;;;10.70;99.90;;;11.34;100.00;99107.06;5021906;28;20979;-81
2022/01/01 04:39:56;;;;;;;17.10;8.73;;;10.70;99.90;;;11.35;100.00;99104.25;5023051;28;20462;-81
2022/01/01 04:42:25;;;;;;;17.23;9.93;;;10.80;99.90;;;11.35;100.00;99106.88;5026016;28;21031;-81
2022/01/01 04:44:55;;;;;;;13.10;8.77;;;10.70;99.90;;;11.36;100.00;99105.91;5031550;28;20465;-81
2022/01/01 04:47:23;;;;;;;12.80;9.17;;;10.80;99.90;;;11.33;100.00;99105.41;5027509;28;20549;-81
2022/01/01 04:49:53;;;;;;;18.00;9.07;;;10.80;99.90;;;11.33;100.00;99102.78;5025977;28;20823;-81
2022/01/01 04:52:24;;;;;;;16.73;10.27;;;10.70;99.90;;;11.30;100.00;99111.81;5025809;28;20494;-81
2022/01/01 04:54:55;;;;;;;15.50;9.20;;;10.60;99.90;;;11.29;100.00;99109.34;5019983;28;21126;-81
2022/01/01 04:57:30;;;;;;;20.27;9.67;;;10.60;99.90;;;11.25;100.00;99119.31;5025237;28;20539;-80
2022/01/01 04:59:59;;;;;;;14.50;9.03;;;10.50;99.90;;;11.25;100.00;99124.56;5028363;28;20466;-81
2022/01/01 05:02:30;;;;;;;17.80;10.20;;;10.60;99.90;;;11.24;100.00;99122.13;5026967;28;20471;-81
2022/01/01 05:05:00;;;;;;;14.47;9.00;;;10.50;99.90;;;11.23;100.00;99116.06;5028959;28;20512;-81
2022/01/01 05:07:31;;;;;;;17.27;9.67;;;10.40;99.90;;;11.23;100.00;99133.56;5022547;28;20881;-82
2022/01/01 05:10:01;;;;;;;31.53;17.37;;;10.50;99.90;;;11.16;100.00;99125.56;5022353;28;20983;-80
2022/01/01 05:12:32;;;;;;;19.57;11.67;;;10.50;99.90;;;11.14;100.00;99124.09;5024918;28;20940;-81
2022/01/01 05:15:01;;;;;;;17.73;10.40;;;10.50;99.90;;;11.11;100.00;99114.75;5025861;28;20447;-81
2022/01/01 05:17:31;;;;;;;14.90;9.13;;;10.40;99.90;;;11.10;100.00;99113.13;5023208;28;20474;-81
2022/01/01 05:20:01;;;;;;;20.57;10.57;;;10.40;99.90;;;11.08;100.00;99115.06;5020398;28;20578;-81
2022/01/01 05:22:33;;;;;;;30.43;15.13;;;10.30;99.90;;;11.05;100.00;99123.25;5023571;28;20470;-80
2022/01/01 05:25:06;;;;;;;22.63;11.00;;;10.30;99.90;;;11.02;100.00;99110.50;5024690;28;20463;-81
2022/01/01 05:27:36;;;;;;;22.00;10.23;;;10.30;99.90;;;10.98;100.00;99114.41;5028775;28;21073;-82
2022/01/01 05:30:08;;;;;;;24.00;11.30;;;10.20;99.90;;;10.99;100.00;99095.13;5023631;28;20817;-80
2022/01/01 05:32:38;;;;;;;20.53;10.17;;;10.20;99.90;;;10.99;100.00;99102.97;5027712;28;20497;-80
2022/01/01 05:35:09;;;;;;;19.80;9.97;;;10.30;99.90;;;10.96;100.00;99095.47;5028981;28;20449;-81
2022/01/01 05:37:39;;;;;;;19.80;10.00;;;10.20;99.90;;;10.94;100.00;99089.56;5028171;28;21029;-81
2022/01/01 05:40:13;;;;;;;13.83;9.80;;;10.20;99.90;;;10.93;100.00;99080.09;5030819;28;20536;-81
2022/01/01 05:42:43;;;;;;;20.10;9.70;;;10.10;99.90;;;10.93;100.00;99087.94;5025522;28;20482;-81
2022/01/01 05:45:14;;;;;;;18.43;10.90;;;10.10;99.90;;;10.93;100.00;99093.16;5024754;28;20492;-79
2022/01/01 05:47:44;;;;;;;17.77;11.17;;;10.10;99.90;;;10.92;100.00;99083.66;5023058;28;20508;-78
2022/01/01 05:50:14;;;;;;;15.67;10.43;;;10.30;99.90;;;10.95;100.00;99088.56;5013683;28;20462;-79
2022/01/01 05:52:47;;;;;;;18.87;11.67;;;10.30;99.90;;;10.93;100.00;99088.72;5020194;28;20502;-79
2022/01/01 05:55:16;;;;;;;21.37;11.97;;;10.30;99.90;;;10.94;100.00;99089.56;5017004;28;20458;-79
2022/01/01 05:57:46;;;;;;;18.27;11.17;;;10.30;99.90;;;10.96;100.00;99085.81;5015285;28;21030;-79
2022/01/01 06:00:23;;;;;;;17.50;9.37;;;10.30;99.90;;;10.95;100.00;99080.72;5018124;28;20985;-79
2022/01/01 06:02:53;;;;;;;13.43;9.20;;;10.40;99.90;;;10.96;100.00;99072.72;5018216;28;20517;-80
2022/01/01 06:05:22;;;;;;;17.10;9.20;;;10.40;99.90;;;10.96;100.00;99083.19;5018559;28;21155;-80
2022/01/01 06:07:55;;;;;;;16.67;9.77;;;10.30;99.90;;;10.98;100.00;99091.69;5021871;28;20557;-78
2022/01/01 06:10:27;;;;;;;20.80;12.17;;;10.40;99.90;;;10.95;100.00;99092.03;5020588;28;21314;-80
2022/01/01 06:12:57;;;;;;;18.00;10.30;;;10.40;99.90;;;10.97;100.00;99090.03;5025128;28;20493;-79
2022/01/01 06:15:27;;;;;;;13.63;8.43;;;10.50;99.90;;;10.99;100.00;99095.13;5026440;28;20454;-79
2022/01/01 06:17:57;;;;;;;14.10;8.30;;;10.40;99.90;;;10.99;100.00;99087.28;5026719;28;20950;-79
2022/01/01 06:20:28;;;;;;;13.60;8.70;;;10.40;99.90;;;11.01;100.00;99090.53;5025520;28;20492;-79
2022/01/01 06:23:08;;;;;;;20.53;8.83;;;10.40;99.90;;;11.02;100.00;99094.78;5026965;28;20457;-79
2022/01/01 06:25:39;;;;;;;15.93;9.00;;;10.40;99.90;;;11.03;100.00;99096.44;5022455;28;20469;-79
2022/01/01 06:28:09;;;;;;;13.87;7.90;;;10.40;99.90;;;11.02;100.00;99103.47;5026787;28;21004;-79
2022/01/01 06:30:39;;;;;;;14.80;10.17;;;10.40;99.90;;;11.01;100.00;99106.22;5021638;28;20504;-79
2022/01/01 06:33:14;;;;;;;16.17;9.03;;;10.40;99.90;;;11.00;100.00;99109.84;5025771;28;20591;-79
2022/01/01 06:35:45;;;;;;;16.30;10.10;;;10.40;99.90;;;10.99;100.00;99113.44;5031373;28;20456;-79
2022/01/01 06:38:18;;;;;;;14.60;9.57;;;10.30;99.90;;;10.97;100.00;99118.00;5023015;28;20549;-79
2022/01/01 06:40:46;;;;;;;13.87;8.17;;;10.30;99.90;;;10.99;100.00;99122.13;5021790;28;20495;-79
2022/01/01 06:43:18;;;;;;;13.07;8.80;;;10.30;99.90;;;11.02;100.00;99134.06;5025856;28;20480;-79
2022/01/01 06:45:48;;;;;;;15.10;9.47;;;10.40;99.90;;;11.04;100.00;99132.06;5024465;28;20463;-80
2022/01/01 06:48:18;;;;;;;18.20;8.93;;;10.40;99.90;;;11.04;100.00;99140.75;5022718;28;20466;-79
2022/01/01 06:50:47;;;;;;;14.10;9.20;;;10.40;99.90;;;11.06;100.00;99146.66;5023786;28;20494;-79
2022/01/01 06:53:18;;;;;;;13.83;8.57;;;10.40;99.90;;;11.10;100.00;99141.91;5024595;28;20494;-79
2022/01/01 06:55:47;;;;;;;13.90;8.40;;;10.50;99.90;;;11.09;100.00;99145.50;5023674;28;20458;-80
2022/01/01 06:58:16;;;;;;;16.70;9.70;;;10.50;99.90;;;11.10;100.00;99144.53;5023335;28;20523;-80
2022/01/01 07:00:47;;;;;;;17.97;9.90;;;10.50;99.90;;;11.12;100.00;99153.03;5020095;28;20488;-79
2022/01/01 07:03:23;;;;;;;13.40;8.13;;;10.50;99.90;;;11.12;100.00;99155.66;5022995;28;20466;-79
2022/01/01 07:05:53;;;;;;;16.90;8.90;;;10.50;99.90;;;11.13;100.00;99156.47;5020131;28;20464;-79
2022/01/01 07:08:25;;;;;;;16.93;9.07;;;10.50;99.90;;;11.15;100.00;99159.72;5019315;28;20453;-79
2022/01/01 07:10:54;;;;;;;18.53;10.00;;;10.50;99.90;;;11.13;100.00;99159.91;5018937;28;20478;-80
2022/01/01 07:13:24;;;;;;;12.80;7.60;;;10.50;99.90;;;11.13;100.00;99159.91;5019839;28;20994;-80
2022/01/01 07:15:56;;;;;;;14.90;9.00;;;10.50;99.90;;;11.14;100.00;99161.56;5018092;28;20474;-80
2022/01/01 07:18:26;;;;;;;16.30;8.00;;;10.60;99.90;;;11.13;100.00;99157.28;5018845;28;20467;-79
2022/01/01 07:20:56;;;;;;;15.90;7.97;;;10.50;99.90;;;11.15;100.00;99151.88;5019173;28;20478;-79
2022/01/01 07:23:29;;;;;;;14.10;8.00;;;10.50;99.90;;;11.14;100.00;99158.94;5021187;28;20462;-79
2022/01/01 07:25:59;;;;;;;16.40;10.77;;;10.50;99.90;;;11.15;100.00;99157.94;5022948;28;20512;-80
2022/01/01 07:28:29;;;;;;;19.40;9.90;;;10.60;99.90;;;11.15;100.00;99165.78;5021547;28;20470;-80
2022/01/01 07:30:58;;;;;;;19.17;10.43;;;10.60;99.90;;;11.16;100.00;99180.53;5017354;28;20474;-80
2022/01/01 07:33:29;;;;;;;19.00;9.33;;;10.60;99.90;;;11.16;100.00;99183.16;5021805;28;20616;-79
2022/01/01 07:35:59;;;;;;;19.97;8.93;;;10.60;99.90;;;11.16;100.00;99188.38;5019686;28;20469;-79
2022/01/01 07:38:32;;;;;;;14.90;9.30;;;10.60;99.90;;;11.17;100.00;99184.78;5020853;28;20463;-80
2022/01/01 07:41:02;;;;;;;31.50;15.17;;;10.60;99.90;;;11.17;100.00;99190.03;5022070;28;20832;-81
2022/01/01 07:43:32;;;;;;;16.27;10.07;;;10.50;99.90;;;11.16;100.00;99185.75;5018561;28;20469;-80
2022/01/01 07:46:01;;;;;;;19.93;10.87;;;10.50;99.90;;;11.17;100.00;99187.41;5028530;28;20458;-80
2022/01/01 07:48:31;;;;;;;21.70;11.10;;;10.50;99.90;;;11.21;100.00;99186.06;5019674;28;20978;-80
2022/01/01 07:51:01;;;;;;;21.80;11.00;;;10.50;99.90;;;11.22;100.00;99182.50;5015331;28;20461;-80
2022/01/01 07:53:32;;;;;;;18.37;10.80;;;10.60;99.90;;;11.22;100.00;99177.25;5022729;28;20596;-80
2022/01/01 07:56:02;;;;;;;14.17;10.10;;;10.50;99.90;;;11.22;100.00;99171.19;5021576;28;20834;-79
2022/01/01 07:58:33;;;;;;;18.27;10.97;;;10.60;99.90;;;11.23;100.00;99173.66;5027345;28;20496;-80
2022/01/01 08:01:03;;;;;;;15.37;9.80;;;10.60;99.90;;;11.23;100.00;99175.47;5027953;28;21025;-79
2022/01/01 08:03:33;;;;;;;17.47;9.97;;;10.70;99.90;;;11.20;100.00;99176.59;5024771;28;20519;-79
2022/01/01 08:06:04;;;;;;;16.87;10.30;;;10.60;99.90;;;11.17;100.00;99176.94;5027477;28;20806;-79
2022/01/01 08:08:35;;;;;;;22.50;11.20;;;10.50;99.90;;;11.16;100.00;99184.94;5027831;28;20461;-80
2022/01/01 08:11:06;;;;;;;19.77;12.43;;;10.40;99.90;;;11.14;100.00;99182.50;5023104;28;20458;-79
2022/01/01 08:13:36;;;;;;;19.00;11.97;;;10.40;99.90;;;11.17;100.00;99184.78;5025677;28;20572;-79
2022/01/01 08:16:09;;;;;;;18.80;11.83;;;10.40;99.90;;;11.20;100.00;99187.09;5029065;28;21069;-79
2022/01/01 08:18:38;;;;;;;19.83;11.40;;;10.40;99.90;;;11.19;100.00;99177.59;5022008;28;20869;-79
2022/01/01 08:21:07;;;;;;;17.33;10.90;;;10.40;99.90;;;11.20;100.00;99187.09;5025769;28;20575;-79
2022/01/01 08:23:39;;;;;;;20.50;11.77;;;10.40;99.90;;;11.21;100.00;99188.69;5026893;28;20469;-79
2022/01/01 08:26:13;;;;;;;19.27;11.37;;;10.40;99.90;;;11.22;100.00;99192.97;5021538;28;20606;-79
2022/01/01 08:28:44;;;;;;;23.83;12.47;;;10.50;99.90;;;11.24;100.00;99190.19;5023549;28;20474;-80
2022/01/01 08:31:14;;;;;;;27.97;14.10;;;10.50;99.90;;;11.27;100.00;99192.47;5022803;28;20463;-79
2022/01/01 08:33:44;;;;;;;21.77;12.60;;;10.70;99.90;;;11.24;100.00;99191.00;5022697;28;21244;-79
2022/01/01 08:36:14;;;;;;;31.27;14.07;;;10.60;99.90;;;11.24;100.00;99191.00;5024758;28;20497;-79
2022/01/01 08:38:45;;;;;;;27.43;13.90;;;10.70;99.90;;;11.23;100.00;99194.59;5025959;28;20466;-80
2022/01/01 08:41:14;;;;;;;24.77;13.40;;;10.60;99.90;;;11.21;100.00;99193.94;5024467;28;20497;-79
2022/01/01 08:43:45;;;;;;;26.10;13.20;;;10.70;99.90;;;11.23;100.00;99178.06;5021030;28;20465;-79
2022/01/01 08:46:14;;;;;;;26.90;15.30;;;10.70;99.90;;;11.24;100.00;99184.97;5023774;28;20967;-80
2022/01/01 08:48:45;;;;;;;24.50;13.97;;;10.60;99.90;;;11.27;100.00;99182.00;5025833;28;20490;-79
2022/01/01 08:51:17;;;;;;;37.97;16.07;;;10.60;99.90;;;11.27;100.00;99177.59;5024639;28;20450;-80
2022/01/01 08:53:48;;;;;;;22.57;13.67;;;10.70;99.90;;;11.30;100.00;99184.28;5022876;28;20525;-79
2022/01/01 08:56:18;;;;;;;25.63;14.60;;;10.80;99.90;;;11.28;100.00;99176.59;5027094;28;20957;-80
2022/01/01 08:58:48;;;;;;;26.87;14.30;;;10.90;99.90;;;11.30;100.00;99179.06;5029583;28;20442;-79
2022/01/01 09:01:18;;;;;;;21.90;12.83;;;10.90;99.90;;;11.29;100.00;99167.75;5026369;28;20458;-79
2022/01/01 09:03:49;;;;;;;28.60;15.43;;;10.80;99.90;;;11.30;100.00;99168.59;5024999;28;20471;-80
2022/01/01 09:06:21;;;;;;;27.07;13.30;;;10.80;99.90;;;11.35;100.00;99179.41;5020363;28;20461;-80
2022/01/01 09:08:53;;;;;;;27.47;15.73;;;10.90;99.90;;;11.36;100.00;99179.22;5021400;28;20470;-80
2022/01/01 09:11:23;;;;;;;25.47;13.63;;;10.90;99.90;;;11.36;100.00;99179.22;5018633;28;20473;-80
2022/01/01 09:13:55;;;;;;;21.73;13.00;;;10.80;99.90;;;11.38;100.00;99177.28;5029356;28;20489;-80
2022/01/01 09:16:29;;;;;;;22.77;12.63;;;10.90;99.90;;;11.41;100.00;99184.81;5026390;28;20454;-80
2022/01/01 09:18:59;;;;;;;26.70;14.10;;;10.90;99.90;;;11.38;100.00;99177.28;5025913;28;20486;-80
2022/01/01 09:21:28;;;;;;;26.87;13.07;;;10.90;99.90;;;11.38;100.00;99181.69;5040396;28;20517;-80
2022/01/01 09:23:59;;;;;;;24.27;13.70;;;10.80;99.90;;;11.35;100.00;99182.03;5039633;28;20492;-80
2022/01/01 09:26:29;;;;;;;21.80;13.40;;;10.80;99.90;;;11.38;100.00;99181.69;5045176;28;20536;-79
2022/01/01 09:28:58;;;;;;;26.43;13.13;;;10.80;99.90;;;11.41;100.00;99187.41;5048834;28;20448;-79
2022/01/01 09:31:28;;;;;;;20.00;11.17;;;10.90;99.90;;;11.43;100.00;99190.69;5044951;28;20460;-80
2022/01/01 09:33:58;;;;;;;15.43;9.07;;;10.90;99.90;;;11.44;100.00;99196.75;5043703;28;20815;-80
2022/01/01 09:36:27;;;;;;;17.77;10.63;;;10.80;99.90;;;11.46;100.00;99195.59;5043902;28;20461;-79
2022/01/01 09:38:59;;;;;;;16.37;10.40;;;10.90;99.90;;;11.48;100.00;99204.13;5040572;28;20469;-80
2022/01/01 09:41:30;;;;;;;21.17;10.43;;;11.00;99.90;;;11.50;100.00;99202.13;5044354;28;20471;-84
2022/01/01 09:44:00;;;;;;;33.17;12.40;;;11.00;99.90;;;11.51;100.00;99193.31;5037864;28;20550;-80
2022/01/01 09:46:33;;;;;;;21.40;11.23;;;11.00;99.90;;;11.54;100.00;99200.00;5046327;28;20880;-80
2022/01/01 09:49:02;;;;;;;18.10;10.40;;;11.10;99.90;;;11.57;100.00;99197.06;5046913;28;20494;-80
2022/01/01 09:51:32;;;;;;;24.57;12.40;;;11.10;99.90;;;11.58;100.00;99196.91;5042099;28;20687;-80
2022/01/01 09:54:04;;;;;;;23.23;12.87;;;11.00;99.90;;;11.61;100.00;99193.94;5045671;28;20485;-80
2022/01/01 09:56:34;;;;;;;23.33;10.97;;;11.00;99.90;;;11.61;100.00;99203.59;5045091;28;20483;-80
2022/01/01 09:59:06;;;;;;;23.43;11.23;;;11.10;99.90;;;11.63;100.00;99195.59;5044876;28;20457;-80
2022/01/01 10:01:36;;;;;;;30.93;13.20;;;11.10;99.90;;;11.62;100.00;99194.78;5040758;28;20460;-80
2022/01/01 10:04:14;;;;;;;25.60;12.27;;;11.20;99.90;;;11.61;100.00;99187.88;5045593;28;21143;-80
2022/01/01 10:06:44;;;;;;;24.03;12.63;;;11.10;99.90;;;11.58;100.00;99194.28;5044343;28;20962;-81
2022/01/01 10:09:32;;;;;;;23.20;12.03;;;11.10;99.90;;;11.61;100.00;99193.13;5044643;28;20547;-80
2022/01/01 10:12:01;;;;;;;20.40;12.30;;;11.10;99.90;;;11.65;100.00;99194.44;5047090;28;20606;-80
2022/01/01 10:14:39;;;;;;;17.97;11.60;;;11.10;99.90;;;11.68;100.00;99193.28;5048598;28;20620;-80
2022/01/01 10:17:25;;;;;;;21.20;10.97;;;11.10;99.90;;;11.69;100.00;99189.69;5048078;28;20453;-80
2022/01/01 10:19:55;;;;;;;23.63;12.07;;;11.10;99.90;;;11.72;100.00;99184.97;5045560;28;20544;-80
2022/01/01 10:22:25;;;;;;;22.03;10.23;;;11.10;99.90;;;11.73;100.00;99181.34;5048378;28;20930;-80